createdAt,value
2018-03-20T00:02:11.812Z,0.30
2018-03-20T00:04:46.627Z,0.30
2018-03-20T00:07:21.471Z,0.40
2018-03-20T00:09:57.147Z,0.30
2018-03-20T00:12:31.647Z,0.30
2018-03-20T00:15:06.297Z,0.30
2018-03-20T00:17:41.095Z,0.30
2018-03-20T00:20:15.648Z,0.30
2018-03-20T00:22:50.983Z,0.30
2018-03-20T00:25:24.283Z,0.20
2018-03-20T00:27:59.795Z,0.20
2018-03-20T00:30:35.329Z,0.20
2018-03-20T00:33:09.952Z,0.20
2018-03-20T00:35:44.524Z,0.20
2018-03-20T00:38:19.069Z,0.20
2018-03-20T00:40:54.601Z,0.20
2018-03-20T00:43:29.458Z,0.20
2018-03-20T00:46:04.923Z,0.10
2018-03-20T00:48:39.415Z,0.10
2018-03-20T00:51:14.055Z,0.20
2018-03-20T00:53:48.794Z,0.20
2018-03-20T00:59:03.664Z,0.10
2018-03-20T01:01:38.310Z,0.00
2018-03-20T01:04:13.010Z,0.10
2018-03-20T01:06:47.612Z,0.00
2018-03-20T01:09:22.284Z,0.00
2018-03-20T01:11:57.616Z,-0.10
2018-03-20T01:14:32.219Z,-0.10
2018-03-20T01:17:06.926Z,-0.10
2018-03-20T01:19:35.675Z,-0.30
2018-03-20T01:22:10.606Z,-0.30
2018-03-20T01:24:45.175Z,-0.40
2018-03-20T01:27:19.835Z,-0.40
2018-03-20T01:29:54.853Z,-0.50
2018-03-20T01:32:29.427Z,-0.40
2018-03-20T01:35:03.933Z,-0.50
2018-03-20T01:37:39.212Z,-0.50
2018-03-20T01:40:13.847Z,-0.50
2018-03-20T01:42:48.636Z,-0.50
2018-03-20T01:45:24.090Z,-0.50
2018-03-20T01:47:58.751Z,-0.50
2018-03-20T01:50:33.428Z,-0.60
2018-03-20T01:53:19.524Z,-0.60
2018-03-20T01:55:54.069Z,-0.60
2018-03-20T01:58:28.699Z,-0.60
2018-03-20T02:01:03.516Z,-0.60
2018-03-20T02:03:37.964Z,-0.60
2018-03-20T02:06:12.720Z,-0.70
2018-03-20T02:08:47.997Z,-0.70
2018-03-20T02:11:22.925Z,-0.70
2018-03-20T02:13:51.985Z,-0.60
2018-03-20T02:16:26.858Z,-0.60
2018-03-20T02:19:01.546Z,-0.50
2018-03-20T02:21:36.310Z,-0.50
2018-03-20T02:24:11.001Z,-0.40
2018-03-20T02:26:45.699Z,-0.40
2018-03-20T02:29:20.581Z,-0.40
2018-03-20T02:31:55.105Z,-0.50
2018-03-20T02:34:29.843Z,-0.50
2018-03-20T02:37:05.295Z,-0.40
2018-03-20T02:39:39.908Z,-0.40
2018-03-20T02:42:14.613Z,-0.50
2018-03-20T02:44:49.192Z,-0.50
2018-03-20T02:47:23.819Z,-0.50
2018-03-20T02:49:59.155Z,-0.50
2018-03-20T02:52:34.567Z,-0.40
2018-03-20T02:55:10.020Z,-0.40
2018-03-20T02:57:45.615Z,-0.30
2018-03-20T03:00:19.999Z,-0.30
2018-03-20T03:02:54.841Z,-0.30
2018-03-20T03:05:29.467Z,-0.20
2018-03-20T03:07:58.751Z,-0.10
2018-03-20T03:10:33.620Z,-0.10
2018-03-20T03:13:08.357Z,-0.10
2018-03-20T03:15:43.030Z,-0.20
2018-03-20T03:18:17.683Z,-0.30
2018-03-20T03:20:51.723Z,-0.10
2018-03-20T03:23:26.295Z,-0.10
2018-03-20T03:26:01.811Z,0.00
2018-03-20T03:28:37.279Z,0.00
2018-03-20T03:31:11.999Z,0.00
2018-03-20T03:33:46.777Z,0.10
2018-03-20T03:36:21.258Z,0.30
2018-03-20T03:38:55.787Z,0.20
2018-03-20T03:41:30.419Z,0.30
2018-03-20T03:44:04.901Z,0.30
2018-03-20T03:46:39.461Z,0.30
2018-03-20T03:49:14.924Z,0.40
2018-03-20T03:51:49.716Z,0.40
2018-03-20T03:54:24.193Z,0.40
2018-03-20T03:56:59.030Z,0.40
2018-03-20T03:59:33.765Z,0.40
2018-03-20T04:02:03.855Z,0.40
2018-03-20T04:04:38.373Z,0.30
2018-03-20T04:07:13.823Z,0.30
2018-03-20T04:09:48.844Z,0.30
2018-03-20T04:12:23.167Z,0.30
2018-03-20T04:14:57.795Z,0.30
2018-03-20T04:17:32.374Z,0.20
2018-03-20T04:20:06.936Z,0.20
2018-03-20T04:22:41.722Z,0.10
2018-03-20T04:25:16.323Z,0.20
2018-03-20T04:27:51.053Z,0.20
2018-03-20T04:30:25.644Z,0.30
2018-03-20T04:33:01.175Z,0.10
2018-03-20T04:35:36.637Z,0.20
2018-03-20T04:38:11.488Z,0.20
2018-03-20T04:40:46.097Z,0.10
2018-03-20T04:43:20.853Z,0.10
2018-03-20T04:45:55.606Z,0.10
2018-03-20T04:48:30.248Z,0.10
2018-03-20T04:51:05.025Z,-0.30
2018-03-20T04:53:39.645Z,-0.40
2018-03-20T04:56:08.927Z,-0.40
2018-03-20T04:58:43.486Z,-0.30
2018-03-20T05:01:18.180Z,-0.30
2018-03-20T05:03:52.944Z,-0.20
2018-03-20T05:06:28.023Z,-0.50
2018-03-20T05:09:02.529Z,-0.50
2018-03-20T05:11:37.161Z,-0.30
2018-03-20T05:14:12.846Z,-0.20
2018-03-20T05:16:47.425Z,-0.20
2018-03-20T05:19:27.632Z,-0.30
2018-03-20T05:22:07.759Z,-0.40
2018-03-20T05:24:42.145Z,-0.30
2018-03-20T05:27:16.605Z,-0.10
2018-03-20T05:29:50.974Z,-0.10
2018-03-20T05:32:25.391Z,-0.10
2018-03-20T05:35:00.456Z,-0.20
2018-03-20T05:37:35.113Z,-0.20
2018-03-20T05:40:09.651Z,0.00
2018-03-20T05:42:44.019Z,0.00
2018-03-20T05:45:18.782Z,0.00
2018-03-20T05:48:07.569Z,-0.10
2018-03-20T05:50:55.292Z,-0.10
2018-03-20T05:53:24.995Z,0.00
2018-03-20T05:55:54.038Z,0.00
2018-03-20T05:58:23.708Z,0.00
2018-03-20T06:00:52.980Z,0.10
2018-03-20T06:03:22.053Z,-0.10
2018-03-20T06:05:51.151Z,-0.10
2018-03-20T06:08:20.822Z,-0.20
2018-03-20T06:10:50.651Z,-0.10
2018-03-20T06:13:19.666Z,-0.10
2018-03-20T06:15:48.735Z,-0.30
2018-03-20T06:18:17.821Z,-0.10
2018-03-20T06:20:46.934Z,0.00
2018-03-20T06:23:16.027Z,0.10
2018-03-20T06:25:45.147Z,0.20
2018-03-20T06:28:14.702Z,0.20
2018-03-20T06:30:47.736Z,0.30
2018-03-20T06:33:16.889Z,0.30
2018-03-20T06:35:45.738Z,0.40
2018-03-20T06:38:14.785Z,0.40
2018-03-20T06:40:44.215Z,0.50
2018-03-20T06:43:13.889Z,0.50
2018-03-20T06:45:43.857Z,0.60
2018-03-20T06:48:13.706Z,0.70
2018-03-20T06:50:42.592Z,0.70
2018-03-20T06:53:12.934Z,0.70
2018-03-20T06:55:42.007Z,0.70
2018-03-20T06:58:11.237Z,0.80
2018-03-20T07:00:45.827Z,1.00
2018-03-20T07:03:15.450Z,0.90
2018-03-20T07:05:45.900Z,1.00
2018-03-20T07:08:14.964Z,1.00
2018-03-20T07:10:43.884Z,1.00
2018-03-20T07:13:12.820Z,1.20
2018-03-20T07:15:41.864Z,1.10
2018-03-20T07:18:12.598Z,1.20
2018-03-20T07:20:48.110Z,1.30
2018-03-20T07:23:22.820Z,1.30
2018-03-20T07:25:57.346Z,1.40
2018-03-20T07:28:26.519Z,1.60
2018-03-20T07:30:56.577Z,1.80
2018-03-20T07:33:31.275Z,1.80
2018-03-20T07:36:00.401Z,2.00
2018-03-20T07:38:35.028Z,2.00
2018-03-20T07:41:09.623Z,2.20
2018-03-20T07:43:44.899Z,2.30
2018-03-20T07:46:19.621Z,2.50
2018-03-20T07:48:55.164Z,2.50
2018-03-20T07:51:29.658Z,2.50
2018-03-20T07:54:04.014Z,2.60
2018-03-20T07:56:33.538Z,2.50
2018-03-20T07:59:08.863Z,2.30
2018-03-20T08:01:43.378Z,2.20
2018-03-20T08:04:18.104Z,2.20
2018-03-20T08:06:52.723Z,2.10
2018-03-20T08:09:27.460Z,2.20
2018-03-20T08:12:01.971Z,2.40
2018-03-20T08:14:36.598Z,2.40
2018-03-20T08:17:11.138Z,2.60
2018-03-20T08:19:46.371Z,3.00
2018-03-20T08:22:21.599Z,2.90
2018-03-20T08:24:56.172Z,2.90
2018-03-20T08:27:25.472Z,3.10
2018-03-20T08:29:59.963Z,3.30
2018-03-20T08:32:34.605Z,3.40
2018-03-20T08:35:09.204Z,3.50
2018-03-20T08:37:43.940Z,3.40
2018-03-20T08:40:18.526Z,3.50
2018-03-20T08:42:53.270Z,3.50
2018-03-20T08:45:28.676Z,3.60
2018-03-20T08:48:04.145Z,3.70
2018-03-20T08:50:39.156Z,3.70
2018-03-20T08:53:08.387Z,3.90
2018-03-20T08:55:37.540Z,3.90
2018-03-20T08:58:07.528Z,4.20
2018-03-20T09:00:37.292Z,4.50
2018-03-20T09:03:06.660Z,4.50
2018-03-20T09:05:36.415Z,4.80
2018-03-20T09:08:05.460Z,4.80
2018-03-20T09:10:34.833Z,4.90
2018-03-20T09:13:05.148Z,4.60
2018-03-20T09:15:35.016Z,4.60
2018-03-20T09:18:10.289Z,4.50
2018-03-20T09:20:45.062Z,4.50
2018-03-20T09:23:14.699Z,4.40
2018-03-20T09:25:43.809Z,4.40
2018-03-20T09:28:15.323Z,4.50
2018-03-20T09:30:44.358Z,4.40
2018-03-20T09:33:13.637Z,4.40
2018-03-20T09:35:49.027Z,4.30
2018-03-20T09:38:19.044Z,4.30
2018-03-20T09:40:53.759Z,4.30
2018-03-20T09:43:23.067Z,4.30
2018-03-20T09:45:57.910Z,4.40
2018-03-20T09:48:32.423Z,4.50
2018-03-20T09:51:07.948Z,4.60
2018-03-20T09:53:43.635Z,4.90
2018-03-20T09:56:18.279Z,4.90
2018-03-20T09:58:53.558Z,5.20
2018-03-20T10:01:29.143Z,5.20
2018-03-20T10:04:03.990Z,5.20
2018-03-20T10:06:38.605Z,5.20
2018-03-20T10:09:13.188Z,5.20
2018-03-20T10:11:48.555Z,5.40
2018-03-20T10:14:23.457Z,5.40
2018-03-20T10:16:58.317Z,5.40
2018-03-20T10:19:33.089Z,5.50
2018-03-20T10:22:07.839Z,5.50
2018-03-20T10:24:42.507Z,5.50
2018-03-20T10:27:17.071Z,5.50
2018-03-20T10:29:51.580Z,5.50
2018-03-20T10:32:27.059Z,5.70
2018-03-20T10:35:01.763Z,5.70
2018-03-20T10:37:36.268Z,5.80
2018-03-20T10:40:10.968Z,5.90
2018-03-20T10:42:45.568Z,5.90
2018-03-20T10:45:20.896Z,6.10
2018-03-20T10:47:56.344Z,6.20
2018-03-20T10:50:31.119Z,6.10
2018-03-20T10:53:05.709Z,6.20
2018-03-20T10:55:40.732Z,6.20
2018-03-20T10:58:15.567Z,6.30
2018-03-20T11:00:50.707Z,6.40
2018-03-20T11:03:25.404Z,6.40
2018-03-20T11:05:59.994Z,6.40
2018-03-20T11:08:36.115Z,6.40
2018-03-20T11:11:10.651Z,6.60
2018-03-20T11:13:45.963Z,6.70
2018-03-20T11:16:21.410Z,6.80
2018-03-20T11:18:56.156Z,6.70
2018-03-20T11:21:31.485Z,6.90
2018-03-20T11:24:06.961Z,6.90
2018-03-20T11:26:41.504Z,7.00
2018-03-20T11:29:15.917Z,7.00
2018-03-20T11:31:50.521Z,7.00
2018-03-20T11:34:26.766Z,7.20
2018-03-20T11:37:01.447Z,7.20
2018-03-20T11:39:36.020Z,7.30
2018-03-20T11:42:10.892Z,7.40
2018-03-20T11:44:46.120Z,7.40
2018-03-20T11:47:20.757Z,7.40
2018-03-20T11:49:55.346Z,7.40
2018-03-20T11:52:30.013Z,7.50
2018-03-20T11:55:04.310Z,7.60
2018-03-20T11:57:38.753Z,7.70
2018-03-20T12:00:12.791Z,7.80
2018-03-20T12:02:48.310Z,8.00
2018-03-20T12:05:22.881Z,7.90
2018-03-20T12:07:56.830Z,8.00
2018-03-20T12:10:32.202Z,8.10
2018-03-20T12:13:06.708Z,8.10
2018-03-20T12:15:41.296Z,8.00
2018-03-20T12:18:15.789Z,8.20
2018-03-20T12:20:50.499Z,8.30
2018-03-20T12:23:25.876Z,8.30
2018-03-20T12:26:00.681Z,8.30
2018-03-20T12:28:36.283Z,8.30
2018-03-20T12:31:11.250Z,8.30
2018-03-20T12:33:46.672Z,8.50
2018-03-20T12:36:21.199Z,8.50
2018-03-20T12:38:55.883Z,8.60
2018-03-20T12:41:31.360Z,8.60
2018-03-20T12:44:06.016Z,8.60
2018-03-20T12:46:40.738Z,8.70
2018-03-20T12:49:15.320Z,8.80
2018-03-20T12:51:49.863Z,8.80
2018-03-20T12:54:24.424Z,9.00
2018-03-20T12:56:59.164Z,9.10
2018-03-20T12:59:34.562Z,9.10
2018-03-20T13:02:09.122Z,9.10
2018-03-20T13:04:43.788Z,9.10
2018-03-20T13:07:18.710Z,9.10
2018-03-20T13:09:53.334Z,9.20
2018-03-20T13:12:29.446Z,9.30
2018-03-20T13:15:03.805Z,9.20
2018-03-20T13:17:38.493Z,9.20
2018-03-20T13:20:13.234Z,9.10
2018-03-20T13:22:47.807Z,9.10
2018-03-20T13:25:22.370Z,9.40
2018-03-20T13:27:56.996Z,9.60
2018-03-20T13:30:31.568Z,9.60
2018-03-20T13:33:06.209Z,9.60
2018-03-20T13:35:41.013Z,9.60
2018-03-20T13:38:16.493Z,9.70
2018-03-20T13:40:51.232Z,9.60
2018-03-20T13:43:25.873Z,9.70
2018-03-20T13:46:00.386Z,9.70
2018-03-20T13:48:34.991Z,9.70
2018-03-20T13:51:09.644Z,9.60
2018-03-20T13:53:44.255Z,9.60
2018-03-20T13:56:18.897Z,9.50
2018-03-20T13:58:54.171Z,9.60
2018-03-20T14:01:29.479Z,9.70
2018-03-20T14:04:04.901Z,9.80
2018-03-20T14:06:39.469Z,9.80
2018-03-20T14:09:14.980Z,10.00
2018-03-20T14:11:49.820Z,10.00
2018-03-20T14:14:25.195Z,10.00
2018-03-20T14:16:59.819Z,10.00
2018-03-20T14:19:34.428Z,10.00
2018-03-20T14:22:08.942Z,9.90
2018-03-20T14:24:43.566Z,9.90
2018-03-20T14:27:18.929Z,10.00
2018-03-20T14:29:54.079Z,9.90
2018-03-20T14:32:28.755Z,10.00
2018-03-20T14:35:03.514Z,10.00
2018-03-20T14:37:38.156Z,10.10
2018-03-20T14:40:12.733Z,10.10
2018-03-20T14:42:48.058Z,10.10
2018-03-20T14:45:22.840Z,10.10
2018-03-20T14:47:57.429Z,10.30
2018-03-20T14:50:31.917Z,10.40
2018-03-20T14:53:07.381Z,10.50
2018-03-20T14:55:41.951Z,10.40
2018-03-20T14:58:16.739Z,10.30
2018-03-20T15:00:52.870Z,10.10
2018-03-20T15:03:27.423Z,10.10
2018-03-20T15:06:02.963Z,10.30
2018-03-20T15:08:37.711Z,10.20
2018-03-20T15:11:12.067Z,10.40
2018-03-20T15:13:46.960Z,10.40
2018-03-20T15:16:21.565Z,10.30
2018-03-20T15:18:56.113Z,10.20
2018-03-20T15:21:31.491Z,10.00
2018-03-20T15:24:05.832Z,10.00
2018-03-20T15:26:40.547Z,10.10
2018-03-20T15:29:15.202Z,10.30
2018-03-20T15:31:50.078Z,10.40
2018-03-20T15:34:24.560Z,10.30
2018-03-20T15:37:00.151Z,9.90
2018-03-20T15:39:34.890Z,9.90
2018-03-20T15:42:09.567Z,10.00
2018-03-20T15:44:43.984Z,10.10
2018-03-20T15:47:19.155Z,10.20
2018-03-20T15:49:53.624Z,10.30
2018-03-20T15:52:28.164Z,10.30
2018-03-20T15:55:02.789Z,10.20
2018-03-20T15:57:37.603Z,10.20
2018-03-20T16:00:12.248Z,10.10
2018-03-20T16:02:46.956Z,10.10
2018-03-20T16:05:21.680Z,10.00
2018-03-20T16:07:56.333Z,9.90
2018-03-20T16:10:30.982Z,9.90
2018-03-20T16:13:05.626Z,10.00
2018-03-20T16:15:40.207Z,9.90
2018-03-20T16:18:14.730Z,9.90
2018-03-20T16:20:49.320Z,9.90
2018-03-20T16:23:24.912Z,9.80
2018-03-20T16:25:59.609Z,9.80
2018-03-20T16:28:35.076Z,9.80
2018-03-20T16:31:09.579Z,9.80
2018-03-20T16:33:44.105Z,9.80
2018-03-20T16:36:19.764Z,9.70
2018-03-20T16:38:54.465Z,9.70
2018-03-20T16:41:29.076Z,9.70
2018-03-20T16:44:04.417Z,9.50
2018-03-20T16:46:40.629Z,9.50
2018-03-20T16:49:15.238Z,9.50
2018-03-20T16:51:50.552Z,9.30
2018-03-20T16:54:25.111Z,9.30
2018-03-20T16:56:59.723Z,9.20
2018-03-20T16:59:34.396Z,9.10
2018-03-20T17:02:09.102Z,9.10
2018-03-20T17:04:43.680Z,9.20
2018-03-20T17:07:18.997Z,9.00
2018-03-20T17:09:53.639Z,9.00
2018-03-20T17:12:28.190Z,8.90
2018-03-20T17:15:03.143Z,8.70
2018-03-20T17:17:37.788Z,8.60
2018-03-20T17:20:12.467Z,8.50
2018-03-20T17:22:47.090Z,8.40
2018-03-20T17:25:21.988Z,8.30
2018-03-20T17:27:56.628Z,8.20
2018-03-20T17:30:31.370Z,8.00
2018-03-20T17:33:05.919Z,7.90
2018-03-20T17:35:41.232Z,7.70
2018-03-20T17:38:15.774Z,7.70
2018-03-20T17:40:50.392Z,7.60
2018-03-20T17:43:25.056Z,7.50
2018-03-20T17:46:00.624Z,7.40
2018-03-20T17:48:35.231Z,7.30
2018-03-20T17:51:09.960Z,7.30
2018-03-20T17:53:44.770Z,7.20
2018-03-20T17:56:19.371Z,7.20
2018-03-20T17:58:53.969Z,7.10
2018-03-20T18:01:28.380Z,7.10
2018-03-20T18:04:02.959Z,7.00
2018-03-20T18:06:37.680Z,7.00
2018-03-20T18:09:12.277Z,6.90
2018-03-20T18:11:46.743Z,6.80
2018-03-20T18:14:21.480Z,6.80
2018-03-20T18:16:56.050Z,6.70
2018-03-20T18:19:30.569Z,6.70
2018-03-20T18:22:04.455Z,6.70
2018-03-20T18:24:39.063Z,6.60
2018-03-20T18:27:13.703Z,6.60
2018-03-20T18:29:48.194Z,6.60
2018-03-20T18:32:22.927Z,6.50
2018-03-20T18:34:57.736Z,6.50
2018-03-20T18:37:33.836Z,6.40
2018-03-20T18:40:08.636Z,6.40
2018-03-20T18:42:43.572Z,6.40
2018-03-20T18:45:18.366Z,6.30
2018-03-20T18:47:53.032Z,6.30
2018-03-20T18:50:27.685Z,6.30
2018-03-20T18:53:02.411Z,6.20
2018-03-20T18:55:37.035Z,6.20
2018-03-20T18:58:05.894Z,6.20
2018-03-20T19:00:40.397Z,6.10
2018-03-20T19:03:14.953Z,6.10
2018-03-20T19:05:49.756Z,6.10
2018-03-20T19:08:24.435Z,6.10
2018-03-20T19:10:59.092Z,6.00
2018-03-20T19:13:34.374Z,5.90
2018-03-20T19:16:09.854Z,5.90
2018-03-20T19:18:44.469Z,5.90
2018-03-20T19:21:18.993Z,5.90
2018-03-20T19:23:54.127Z,5.70
2018-03-20T19:26:28.767Z,5.70
2018-03-20T19:29:04.439Z,5.60
2018-03-20T19:31:39.083Z,5.60
2018-03-20T19:34:13.646Z,5.60
2018-03-20T19:36:42.652Z,5.60
2018-03-20T19:39:12.210Z,5.50
2018-03-20T19:41:42.334Z,5.40
2018-03-20T19:44:11.544Z,5.40
2018-03-20T19:46:41.359Z,5.40
2018-03-20T19:49:11.095Z,5.30
2018-03-20T19:51:40.248Z,5.30
2018-03-20T19:54:09.385Z,5.30
2018-03-20T19:56:38.686Z,5.20
2018-03-20T19:59:07.972Z,5.20
2018-03-20T20:01:37.031Z,5.20
2018-03-20T20:04:05.620Z,5.10
2018-03-20T20:06:34.618Z,5.10
2018-03-20T20:09:02.992Z,5.00
2018-03-20T20:11:32.077Z,5.10
2018-03-20T20:14:06.888Z,5.00
2018-03-20T20:16:41.500Z,5.00
2018-03-20T20:19:16.207Z,4.90
2018-03-20T20:21:50.611Z,4.90
2018-03-20T20:24:19.767Z,4.80
2018-03-20T20:26:54.415Z,4.80
2018-03-20T20:29:29.287Z,4.70
2018-03-20T20:32:04.028Z,4.70
2018-03-20T20:34:39.701Z,4.70
2018-03-20T20:37:14.360Z,4.60
2018-03-20T20:39:48.882Z,4.60
2018-03-20T20:42:23.713Z,4.50
2018-03-20T20:44:58.350Z,4.50
2018-03-20T20:47:33.876Z,4.40
2018-03-20T20:50:08.405Z,4.40
2018-03-20T20:52:42.992Z,4.40
2018-03-20T20:55:17.720Z,4.40
2018-03-20T20:57:53.356Z,4.30
2018-03-20T21:00:28.065Z,4.30
2018-03-20T21:03:02.811Z,4.30
2018-03-20T21:05:37.453Z,4.20
2018-03-20T21:08:12.020Z,4.30
2018-03-20T21:10:41.415Z,4.30
2018-03-20T21:13:16.239Z,4.30
2018-03-20T21:15:50.770Z,4.20
2018-03-20T21:18:25.388Z,4.20
2018-03-20T21:21:00.072Z,4.20
2018-03-20T21:23:29.312Z,4.20
2018-03-20T21:26:04.041Z,4.10
2018-03-20T21:28:38.851Z,4.10
2018-03-20T21:31:14.310Z,4.00
2018-03-20T21:33:48.983Z,4.00
2018-03-20T21:36:23.735Z,4.00
2018-03-20T21:38:58.532Z,4.00
2018-03-20T21:41:33.124Z,4.00
2018-03-20T21:44:07.908Z,3.90
2018-03-20T21:46:42.668Z,3.90
2018-03-20T21:49:17.277Z,3.90
2018-03-20T21:51:51.941Z,3.80
2018-03-20T21:54:21.064Z,3.90
2018-03-20T21:56:55.654Z,3.80
2018-03-20T21:59:30.874Z,3.80
2018-03-20T22:02:05.758Z,3.70
2018-03-20T22:04:40.586Z,3.70
2018-03-20T22:07:15.264Z,3.70
2018-03-20T22:09:49.831Z,3.70
2018-03-20T22:12:24.454Z,3.70
2018-03-20T22:14:58.958Z,3.60
2018-03-20T22:17:33.569Z,3.50
2018-03-20T22:20:08.214Z,3.50
2018-03-20T22:22:43.432Z,3.50
2018-03-20T22:25:18.284Z,3.40
2018-03-20T22:27:52.854Z,3.50
2018-03-20T22:30:28.334Z,3.40
2018-03-20T22:33:03.058Z,3.40
2018-03-20T22:35:38.591Z,3.40
2018-03-20T22:38:07.637Z,3.30
2018-03-20T22:40:42.506Z,3.30
2018-03-20T22:43:17.150Z,3.30
2018-03-20T22:45:51.831Z,3.30
2018-03-20T22:48:26.403Z,3.20
2018-03-20T22:51:00.987Z,3.20
2018-03-20T22:53:35.699Z,3.20
2018-03-20T22:56:11.113Z,3.00
2018-03-20T22:58:46.525Z,3.00
2018-03-20T23:01:21.176Z,3.00
2018-03-20T23:03:56.496Z,3.00
2018-03-20T23:06:31.059Z,3.00
2018-03-20T23:09:06.413Z,3.00
2018-03-20T23:11:41.144Z,3.00
2018-03-20T23:14:16.655Z,2.90
2018-03-20T23:16:51.249Z,2.90
2018-03-20T23:19:25.999Z,3.00
2018-03-20T23:22:00.496Z,2.90
2018-03-20T23:24:35.177Z,3.00
2018-03-20T23:27:10.311Z,2.90
2018-03-20T23:29:45.074Z,2.90
2018-03-20T23:32:19.601Z,2.80
2018-03-20T23:34:54.355Z,2.80
2018-03-20T23:37:23.571Z,2.80
2018-03-20T23:39:58.698Z,2.80
2018-03-20T23:42:34.048Z,2.70
2018-03-20T23:45:08.667Z,2.70
2018-03-20T23:47:43.180Z,2.70
2018-03-20T23:50:17.791Z,2.70
2018-03-20T23:52:52.317Z,2.60
2018-03-20T23:55:26.937Z,2.60
2018-03-20T23:57:55.954Z,2.60
